Flight Track Log - Related Links

Times and Time Zones

All times are in EDT time to prevent confusion due to time zone crossing. See the SWG527 flight status page for this flight to view local times or setup timezone preferences in your user account.


Time Position Orientation Groundspeed Altitude Reporting Facility
EDT Latitude Longitude Course Direction KTS MPH feet Rate Location/Type
Sun 09:16:25 AM 49.1845 -123.1582 100° East 169 194 800  Level FlightAware ADS-B (CYVR)
Sun 09:16:45 AM 49.1819 -123.1332 100° East 184 212 1,400 1,610 Climbing FlightAware ADS-B (CYVR)
Sun 09:17:06 AM 49.1782 -123.1056 102° East 209 241 1,900 1,350 Climbing FlightAware ADS-B (CYVR)
Sun 09:17:25 AM 49.1743 -123.0765 102° East 231 266 2,300 1,680 Climbing FlightAware ADS-B (CYVR)
Sun 09:17:31 AM 49.1728 -123.0656 247° West 160 184 2,600 2,400 Climbing FlightAware ADS-B
Sun 09:17:45 AM 49.1702 -123.0471 102° East 246 283 3,100 2,160 Climbing FlightAware ADS-B (CYVR)
Sun 09:17:56 AM 49.1673 -123.0257 102° East 256 295 3,500 2,000 Climbing FlightAware ADS-B (CYVR)
Sun 09:18:06 AM 49.1646 -123.0064 102° East 264 304 3,800 2,600 Climbing FlightAware ADS-B (CYVR)
Sun 09:18:26 AM 49.1594 -122.9694 102° East 270 311 4,800 3,077 Climbing FlightAware ADS-B (CYVR)
Sun 09:18:45 AM 49.1547 -122.9348 101° East 276 318 5,800 2,526 Climbing FlightAware ADS-B (CYVR)
Sun 09:19:04 AM 49.1500 -122.8963 100° East 290 334 6,400 2,276 Climbing FlightAware ADS-B (CYVR)
Sun 09:19:14 AM 49.1474 -122.8738 101° East 297 342 6,900 2,667 Climbing FlightAware ADS-B
Sun 09:19:31 AM 49.1429 -122.8363 100° East 307 353 7,600 2,714 Climbing FlightAware ADS-B
Sun 09:19:56 AM 49.1377 -122.7920 100° East 309 356 8,800 2,933 Climbing FlightAware ADS-B (CYVR)
Sun 09:20:16 AM 49.1331 -122.7469 99° East 309 356 9,800 3,067 Climbing FlightAware ADS-B (CYVR)
Sun 09:20:41 AM 49.1236 -122.6869 111° Southeast 310 357 11,100 2,903 Climbing FlightAware ADS-B
Sun 09:20:47 AM 49.1203 -122.6778 122° Southeast 307 353 11,300 2,400 Climbing FlightAware ADS-B
Sun 09:21:26 AM 49.0932 -122.6149 123° Southeast 318 366 12,900 2,174 Climbing FlightAware ADS-B (CYVR)
Sun 09:21:56 AM 49.0656 -122.5507 123° Southeast 335 386 13,800 1,970 Climbing FlightAware ADS-B (CYVR)
Sun 09:22:33 AM 49.0316 -122.4681 122° Southeast 361 415 15,100 2,000 Climbing FlightAware ADS-B
Sun 09:23:08 AM 49.0023 -122.3963 125° Southeast 370 426 16,200 1,920 Climbing FlightAware ADS-B
Sun 09:23:23 AM 48.9835 -122.3638 137° Southeast 358 412 16,700 1,957 Climbing FlightAware ADS-B
Sun 09:23:54 AM 48.9479 -122.3130 136° Southeast 365 420 17,700 2,143 Climbing FlightAware ADS-B (CYVR)
Sun 09:24:05 AM 48.9340 -122.2930 136° Southeast 366 421 18,200 2,294 Climbing FlightAware ADS-B
Sun 09:24:28 AM 48.9063 -122.2523 136° Southeast 371 427 19,000 2,000 Climbing FlightAware ADS-B
Sun 09:24:38 AM 48.8947 -122.2350 136° Southeast 373 429 19,300 1,935 Climbing FlightAware ADS-B
Sun 09:24:59 AM 48.8657 -122.1930 136° Southeast 377 434 20,000 1,800 Climbing FlightAware ADS-B
Sun 09:25:08 AM 48.8564 -122.1790 136° Southeast 378 435 20,200 1,714 Climbing FlightAware ADS-B
Sun 09:25:34 AM 48.8221 -122.1294 136° Southeast 385 443 21,000 1,742 Climbing FlightAware ADS-B
Sun 09:25:39 AM 48.8177 -122.1230 136° Southeast 385 443 21,100 1,500 Climbing FlightAware ADS-B
Sun 09:25:50 AM 48.8030 -122.1020 135° Southeast 390 449 21,400 1,350 Climbing FlightAware ADS-B
Sun 09:26:19 AM 48.7644 -122.0404 134° Southeast 405 466 22,000 1,143 Climbing FlightAware ADS-B
Sun 09:26:32 AM 48.7496 -122.0170 134° Southeast 409 471 22,200 1,412 Climbing FlightAware ADS-B
Sun 09:26:53 AM 48.7192 -121.9690 134° Southeast 416 479 22,800 1,548 Climbing FlightAware ADS-B
Sun 09:27:03 AM 48.7087 -121.9530 134° Southeast 417 480 23,000 1,273 Climbing FlightAware ADS-B
Sun 09:27:26 AM 48.6768 -121.9033 134° Southeast 421 484 23,500 1,400 Climbing FlightAware ADS-B
Sun 09:27:33 AM 48.6679 -121.8890 134° Southeast 421 484 23,700 1,548 Climbing FlightAware ADS-B
Sun 09:27:57 AM 48.6356 -121.8398 135° Southeast 424 488 24,300 1,548 Climbing FlightAware ADS-B
Sun 09:28:04 AM 48.6255 -121.8240 135° Southeast 425 489 24,500 1,600 Climbing FlightAware ADS-B
Sun 09:28:27 AM 48.5943 -121.7764 134° Southeast 427 491 25,100 1,600 Climbing FlightAware ADS-B
Sun 09:28:34 AM 48.5836 -121.7600 134° Southeast 429 494 25,300 1,400 Climbing FlightAware ADS-B
Sun 09:28:57 AM 48.5535 -121.7137 134° Southeast 431 496 25,800 1,200 Climbing FlightAware ADS-B
Sun 09:29:04 AM 48.5415 -121.6950 134° Southeast 433 498 25,900 1,200 Climbing FlightAware ADS-B
Sun 09:29:27 AM 48.5103 -121.6474 134° Southeast 436 502 26,400 1,231 Climbing FlightAware ADS-B
Sun 09:29:43 AM 48.4873 -121.6120 135° Southeast 438 504 26,700 1,200 Climbing FlightAware ADS-B
Sun 09:29:57 AM 48.4682 -121.5831 135° Southeast 441 507 27,000 1,256 Climbing FlightAware ADS-B
Sun 09:30:26 AM 48.4255 -121.5180 135° Southeast 445 512 27,600 1,200 Climbing FlightAware ADS-B
Sun 09:30:27 AM 48.4255 -121.5178 135° Southeast 445 512 27,600 1,161 Level FlightAware ADS-B
Sun 09:30:57 AM 48.3808 -121.4500 135° Southeast 448 516 28,200 1,377 Climbing FlightAware ADS-B
Sun 09:31:28 AM 48.3358 -121.3810 135° Southeast 447 514 29,000 1,650 Climbing FlightAware ADS-B
Sun 09:31:37 AM 48.3251 -121.3650 135° Southeast 446 513 29,300 1,655 Climbing FlightAware ADS-B
Sun 09:31:57 AM 48.2937 -121.3170 135° Southeast 442 509 29,800 1,600 Climbing FlightAware ADS-B
Sun 09:32:07 AM 48.2799 -121.2964 135° Southeast 441 507 30,100 1,400 Climbing FlightAware ADS-B
Sun 09:32:27 AM 48.2503 -121.2520 135° Southeast 441 507 30,500 1,400 Climbing FlightAware ADS-B
Sun 09:32:37 AM 48.2380 -121.2334 135° Southeast 438 504 30,800 1,000 Climbing FlightAware ADS-B
Sun 09:32:57 AM 48.2074 -121.1880 135° Southeast 441 507 31,000 400 Climbing FlightAware ADS-B
Sun 09:33:07 AM 48.1938 -121.1672 135° Southeast 442 509 31,000  Level FlightAware ADS-B
Sun 09:33:28 AM 48.1630 -121.1210 135° Southeast 445 512 31,000  Level FlightAware ADS-B
Sun 09:33:37 AM 48.1488 -121.1000 135° Southeast 445 512 31,000  Level FlightAware ADS-B
Sun 09:33:58 AM 48.1192 -121.0560 135° Southeast 444 511 31,000  Level FlightAware ADS-B
Sun 09:34:08 AM 48.1048 -121.0340 135° Southeast 444 511 31,000  Level FlightAware ADS-B
Sun 09:34:32 AM 48.0694 -120.9810 135° Southeast 444 511 31,000  Level FlightAware ADS-B
Sun 09:34:38 AM 48.0607 -120.9681 135° Southeast 444 511 31,000  Level FlightAware ADS-B
Sun 09:35:03 AM 48.0256 -120.9160 135° Southeast 444 511 31,000  Level FlightAware ADS-B
Sun 09:35:18 AM 48.0037 -120.8830 135° Southeast 441 507 31,000  Level FlightAware ADS-B
Sun 09:35:33 AM 47.9822 -120.8510 135° Southeast 439 505 31,000  Level FlightAware ADS-B
Sun 09:35:48 AM 47.9654 -120.8262 135° Southeast 443 510 31,000  Level FlightAware ADS-B
Sun 09:36:03 AM 47.9377 -120.7850 135° Southeast 445 512 31,000  Level FlightAware ADS-B
Sun 09:36:18 AM 47.9193 -120.7581 135° Southeast 446 513 31,000  Level FlightAware ADS-B
Sun 09:36:34 AM 47.8930 -120.7190 135° Southeast 446 513 31,000  Level FlightAware ADS-B
Sun 09:36:48 AM 47.8722 -120.6885 135° Southeast 448 516 31,000  Level FlightAware ADS-B
Sun 09:37:04 AM 47.8484 -120.6530 135° Southeast 449 517 31,000  Level FlightAware ADS-B
Sun 09:37:27 AM 47.8162 -120.6059 135° Southeast 450 518 31,000  Level FlightAware ADS-B
Sun 09:37:35 AM 47.8035 -120.5870 135° Southeast 450 518 31,000  Level FlightAware ADS-B
Sun 09:37:58 AM 47.7710 -120.5395 135° Southeast 450 518 31,000  Level FlightAware ADS-B
Sun 09:38:05 AM 47.7585 -120.5210 135° Southeast 450 518 31,000  Level FlightAware ADS-B
Sun 09:38:35 AM 47.7136 -120.4560 135° Southeast 453 521 31,000  Level FlightAware ADS-B
Sun 09:39:06 AM 47.6681 -120.3890 135° Southeast 456 525 31,000  Level FlightAware ADS-B
Sun 09:39:39 AM 47.6183 -120.3170 135° Southeast 459 528 31,000  Level FlightAware ADS-B
Sun 09:39:42 AM 47.6165 -120.3143 135° Southeast 459 528 31,000  Level FlightAware ADS-B
Sun 09:40:09 AM 47.5729 -120.2510 136° Southeast 458 527 31,000  Level FlightAware ADS-B
Sun 09:40:35 AM 47.5334 -120.1940 136° Southeast 458 527 31,000  Level FlightAware ADS-B
Sun 09:41:05 AM 47.4879 -120.1290 136° Southeast 458 527 31,000  Level FlightAware ADS-B
Sun 09:41:35 AM 47.4420 -120.0630 136° Southeast 460 529 31,000  Level FlightAware ADS-B
Sun 09:42:06 AM 47.3958 -119.9960 136° Southeast 461 531 31,000  Level FlightAware ADS-B
Sun 09:42:38 AM 47.3463 -119.9250 136° Southeast 461 531 31,000  Level FlightAware ADS-B
Sun 09:43:08 AM 47.3002 -119.8590 136° Southeast 460 529 31,000  Level FlightAware ADS-B
Sun 09:43:38 AM 47.2547 -119.7940 136° Southeast 458 527 31,000  Level FlightAware ADS-B
Sun 09:44:08 AM 47.2089 -119.7290 136° Southeast 458 527 31,000  Level FlightAware ADS-B
Sun 09:44:42 AM 47.1570 -119.6560 136° Southeast 459 528 31,000  Level FlightAware ADS-B
Sun 09:45:13 AM 47.1106 -119.5900 136° Southeast 461 531 31,000  Level FlightAware ADS-B
Sun 09:45:43 AM 47.0646 -119.5250 136° Southeast 463 533 31,000  Level FlightAware ADS-B
Sun 09:46:37 AM 46.9818 -119.4090 136° Southeast 464 534 31,000 466 Level FlightAware ADS-B
Sun 09:47:39 AM 46.8842 -119.2720 136° Southeast 471 542 31,900 1,000 Climbing FlightAware ADS-B
Sun 09:48:19 AM 46.8219 -119.1850 136° Southeast 470 541 32,700 1,256 Climbing FlightAware ADS-B
Sun 09:49:05 AM 46.7543 -119.0905 136° Southeast 463 533 33,700 1,286 Climbing FlightAware ADS-B (FLN / SBFL)
Sun 09:49:15 AM 46.7355 -119.0640 136° Southeast 462 532 33,900 1,200 Climbing FlightAware ADS-B
Sun 09:49:40 AM 46.6961 -119.0098 136° Southeast 458 527 34,400 870 Climbing FlightAware ADS-B (FLN / SBFL)
Sun 09:50:24 AM 46.6463 -118.9413 137° Southeast 459 528 34,900 396 Climbing FlightAware ADS-B (FLN / SBFL)
Sun 09:51:11 AM 46.5611 -118.8236 137° Southeast 457 526 35,000 56 Climbing Seattle Center
Sun 09:52:12 AM 46.4667 -118.6950 137° Southeast 463 533 35,000  Level Seattle Center
Sun 09:53:12 AM 46.3728 -118.5672 137° Southeast 465 535 35,000  Level Seattle Center
Sun 09:54:13 AM 46.2789 -118.4417 137° Southeast 463 533 35,000  Level Seattle Center
Sun 09:55:14 AM 46.1828 -118.3097 136° Southeast 465 535 35,000  Level Seattle Center
Sun 09:56:14 AM 46.0897 -118.1828 137° Southeast 471 542 35,000  Level Seattle Center
Sun 09:57:15 AM 45.9936 -118.0589 138° Southeast 469 540 35,000  Level Seattle Center
Sun 09:58:15 AM 45.8981 -117.9322 137° Southeast 469 540 35,000  Level Seattle Center
Sun 09:59:16 AM 45.8022 -117.8061 137° Southeast 470 541 35,000  Level Seattle Center
Sun 10:00:16 AM 45.7061 -117.6792 137° Southeast 471 542 35,000  Level Seattle Center
Sun 10:01:17 AM 45.6019 -117.5442 138° Southeast 470 541 35,000  Level Seattle Center
Sun 10:02:17 AM 45.5058 -117.4183 137° Southeast 470 541 35,000  Level Seattle Center
Sun 10:03:17 AM 45.4136 -117.3003 138° Southeast 468 539 35,000  Level Seattle Center
Sun 10:04:18 AM 45.3172 -117.1736 137° Southeast 472 543 35,000  Level Seattle Center
Sun 10:05:18 AM 45.2183 -117.0483 138° Southeast 476 548 35,000  Level Seattle Center
Sun 10:06:19 AM 45.1186 -116.9211 138° Southeast 483 556 35,000  Level Seattle Center
Sun 10:07:19 AM 45.0194 -116.7928 138° Southeast 485 558 35,000  Level Seattle Center
Sun 10:08:20 AM 44.9206 -116.6683 138° Southeast 479 551 35,000  Level Seattle Center
Sun 10:09:20 AM 44.8214 -116.5433 138° Southeast 479 551 35,000  Level Seattle Center
Sun 10:10:21 AM 44.7225 -116.4194 138° Southeast 478 550 35,000  Level Seattle Center
Sun 10:11:22 AM 44.6250 -116.2969 138° Southeast 473 544 35,000  Level Seattle Center
Sun 10:12:22 AM 44.5253 -116.1731 138° Southeast 475 547 35,000  Level Seattle Center
Sun 10:13:23 AM 44.4178 -116.0408 139° Southeast 479 551 35,000  Level Seattle Center
Sun 10:14:49 AM 44.2789 -115.8681 138° Southeast 475 547 35,000  Level Salt Lake Center
Sun 10:15:50 AM 44.1789 -115.7464 139° Southeast 478 550 35,000  Level Salt Lake Center
Sun 10:16:51 AM 44.0792 -115.6256 139° Southeast 477 549 35,000  Level Salt Lake Center
Sun 10:17:52 AM 43.9594 -115.4797 139° Southeast 478 550 35,000  Level Salt Lake Center
Sun 10:24:09 AM 43.3227 -114.7221 139° Southeast 476 548 35,000  Level FlightAware ADS-B (KBTF)
Sun 10:24:50 AM 43.2542 -114.6418 139° Southeast 474 545 35,000  Level FlightAware ADS-B (KBTF)
Sun 10:25:29 AM 43.1878 -114.5643 139° Southeast 474 545 35,000  Level FlightAware ADS-B (KBTF)
Sun 10:26:10 AM 43.1189 -114.4843 139° Southeast 474 545 35,000  Level FlightAware ADS-B (KBTF)
Sun 10:26:49 AM 43.0521 -114.4068 140° Southeast 482 555 35,000  Level FlightAware ADS-B (KBTF)
Sun 10:27:29 AM 42.9847 -114.3290 140° Southeast 483 556 35,000  Level FlightAware ADS-B (KBTF)
Sun 10:28:09 AM 42.9151 -114.2487 140° Southeast 484 557 35,000  Level FlightAware ADS-B (KBTF)
Sun 10:28:49 AM 42.8473 -114.1708 140° Southeast 485 558 35,000  Level FlightAware ADS-B (KBTF)
Sun 10:29:29 AM 42.7784 -114.0916 140° Southeast 485 558 35,000  Level FlightAware ADS-B
Sun 10:30:00 AM 42.7266 -114.0324 140° Southeast 485 558 35,000  Level FlightAware ADS-B
Sun 10:30:30 AM 42.6734 -113.9717 140° Southeast 486 559 35,000  Level FlightAware ADS-B (KBTF)
Sun 10:31:00 AM 42.6218 -113.9132 140° Southeast 484 557 35,000  Level FlightAware ADS-B
Sun 10:31:30 AM 42.5710 -113.8556 140° Southeast 486 559 35,000  Level FlightAware ADS-B (KBTF)
Sun 10:32:01 AM 42.5178 -113.7956 140° Southeast 486 559 35,000  Level FlightAware ADS-B
Sun 10:32:33 AM 42.4636 -113.7346 140° Southeast 486 559 35,000  Level FlightAware ADS-B
Sun 10:33:03 AM 42.4113 -113.6760 140° Southeast 486 559 35,000  Level FlightAware ADS-B
Sun 10:33:34 AM 42.3574 -113.6156 140° Southeast 486 559 35,000  Level FlightAware ADS-B
Sun 10:34:04 AM 42.3052 -113.5572 140° Southeast 486 559 35,000  Level FlightAware ADS-B
Sun 10:34:38 AM 42.2464 -113.4916 140° Southeast 485 558 35,000  Level FlightAware ADS-B
Sun 10:34:50 AM 42.2261 -113.4690 141° Southeast 485 558 35,000  Level FlightAware ADS-B (KBTF)
Sun 10:35:30 AM 42.1566 -113.3919 140° Southeast 485 558 35,000  Level FlightAware ADS-B
Sun 10:36:01 AM 42.1037 -113.3333 141° Southeast 485 558 35,000  Level FlightAware ADS-B
Sun 10:36:31 AM 42.0508 -113.2749 141° Southeast 485 558 35,000  Level FlightAware ADS-B
Sun 10:36:51 AM 42.0158 -113.2362 141° Southeast 485 558 35,000  Level FlightAware ADS-B
Sun 10:37:22 AM 41.9621 -113.1771 140° Southeast 479 551 35,000  Level FlightAware ADS-B
Sun 10:37:52 AM 41.9109 -113.1209 141° Southeast 485 558 35,000  Level FlightAware ADS-B
Sun 10:38:12 AM 41.8783 -113.0850 141° Southeast 486 559 35,000  Level FlightAware ADS-B
Sun 10:38:36 AM 41.8347 -113.0375 140° Southeast 481 554 35,000  Level FlightAware ADS-B
Sun 10:38:55 AM 41.8006 -113.0002 140° Southeast 480 552 35,000  Level FlightAware ADS-B
Sun 10:39:31 AM 41.7389 -112.9330 140° Southeast 481 554 35,000  Level FlightAware ADS-B (KBTF)
Sun 10:40:06 AM 41.6790 -112.8679 141° Southeast 486 559 35,000  Level FlightAware ADS-B
Sun 10:40:41 AM 41.6170 -112.8005 141° Southeast 486 559 35,000  Level FlightAware ADS-B
Sun 10:40:51 AM 41.6013 -112.7835 141° Southeast 486 559 35,000  Level FlightAware ADS-B
Sun 10:41:11 AM 41.5640 -112.7431 141° Southeast 487 560 35,000  Level FlightAware ADS-B
Sun 10:41:42 AM 41.5106 -112.6853 141° Southeast 486 559 35,000  Level FlightAware ADS-B
Sun 10:41:52 AM 41.4927 -112.6661 140° Southeast 481 554 35,000  Level FlightAware ADS-B
Sun 10:42:12 AM 41.4571 -112.6277 140° Southeast 480 552 35,000  Level FlightAware ADS-B
Sun 10:42:43 AM 41.4033 -112.5698 141° Southeast 486 559 35,000  Level FlightAware ADS-B
Sun 10:43:13 AM 41.3507 -112.5132 141° Southeast 485 558 35,000  Level FlightAware ADS-B
Sun 10:43:44 AM 41.2983 -112.4572 141° Southeast 485 558 35,000  Level FlightAware ADS-B
Sun 10:44:16 AM 41.2417 -112.3967 141° Southeast 487 560 35,000  Level FlightAware ADS-B
Sun 10:44:47 AM 41.1868 -112.3380 141° Southeast 487 560 35,000  Level FlightAware ADS-B (KBTF)
Sun 10:45:18 AM 41.1335 -112.2813 141° Southeast 480 552 35,000  Level FlightAware ADS-B
Sun 10:45:49 AM 41.0789 -112.2233 141° Southeast 480 552 35,000  Level FlightAware ADS-B
Sun 10:46:26 AM 41.0130 -112.1536 141° Southeast 485 558 35,000  Level FlightAware ADS-B
Sun 10:46:57 AM 40.9593 -112.0967 141° Southeast 484 557 35,000  Level FlightAware ADS-B
Sun 10:47:44 AM 40.8758 -112.0112 148° Southeast 473 544 35,000  Level FlightAware ADS-B
Sun 10:48:03 AM 40.8395 -111.9891 161° South 473 544 35,000  Level FlightAware ADS-B
Sun 10:48:23 AM 40.7962 -111.9780 176° South 465 535 35,000  Level FlightAware ADS-B
Sun 10:48:57 AM 40.7246 -111.9728 177° South 464 534 35,000  Level FlightAware ADS-B
Sun 10:49:28 AM 40.6583 -111.9680 177° South 464 534 35,000  Level FlightAware ADS-B
Sun 10:49:59 AM 40.5903 -111.9631 177° South 464 534 35,000  Level FlightAware ADS-B
Sun 10:50:29 AM 40.5260 -111.9585 177° South 466 536 35,000  Level FlightAware ADS-B
Sun 10:51:01 AM 40.4640 -111.9540 177° South 468 539 35,000  Level FlightAware ADS-B
Sun 10:51:35 AM 40.3830 -111.9482 177° South 470 541 35,000  Level FlightAware ADS-B
Sun 10:52:10 AM 40.3082 -111.9429 177° South 465 535 35,000  Level FlightAware ADS-B (KBTF)
Sun 10:52:43 AM 40.2388 -111.9344 173° South 475 547 35,000  Level FlightAware ADS-B
Sun 10:53:14 AM 40.1701 -111.9227 173° South 475 547 35,000  Level FlightAware ADS-B
Sun 10:53:45 AM 40.1022 -111.9111 173° South 474 545 35,000  Level FlightAware ADS-B
Sun 10:54:15 AM 40.0369 -111.9001 173° South 474 545 35,000  Level FlightAware ADS-B
Sun 10:54:45 AM 39.9712 -111.8888 173° South 475 547 35,000  Level FlightAware ADS-B
Sun 10:55:16 AM 39.9081 -111.8781 173° South 474 545 35,000  Level FlightAware ADS-B
Sun 10:55:50 AM 39.8279 -111.8645 172° South 468 539 35,000  Level FlightAware ADS-B (KBTF)
Sun 10:56:05 AM 39.8323 -111.8652 173° South 478 550 35,000  Level FlightAware ADS-B
Sun 10:56:37 AM 39.7472 -111.8509 173° South 479 551 35,000  Level FlightAware ADS-B
Sun 10:56:47 AM 39.7038 -111.8436 172° South 471 542 35,000  Level FlightAware ADS-B
Sun 10:57:19 AM 39.6445 -111.8337 173° South 478 550 35,000  Level FlightAware ADS-B
Sun 10:57:50 AM 39.5657 -111.8205 173° South 470 541 35,000  Level FlightAware ADS-B (KBTF)
Sun 10:58:21 AM 39.4985 -111.8093 173° South 479 551 35,000  Level FlightAware ADS-B
Sun 10:59:06 AM 39.3985 -111.8045 182° South 469 540 35,000  Level FlightAware ADS-B
Sun 10:59:43 AM 39.3164 -111.8073 182° South 478 550 35,000  Level FlightAware ADS-B
Sun 11:00:14 AM 39.2523 -111.8096 182° South 478 550 35,000  Level FlightAware ADS-B
Sun 11:00:45 AM 39.1801 -111.8121 182° South 479 551 35,000  Level FlightAware ADS-B
Sun 11:01:17 AM 39.1091 -111.8145 182° South 480 552 35,000  Level FlightAware ADS-B
Sun 11:01:48 AM 39.0401 -111.8168 181° South 481 554 35,000  Level FlightAware ADS-B
Sun 11:02:23 AM 38.9666 -111.8192 182° South 483 556 35,000  Level FlightAware ADS-B
Sun 11:03:04 AM 38.8696 -111.8231 182° South 483 556 35,000  Level FlightAware ADS-B
Sun 11:03:45 AM 38.7788 -111.8267 181° South 484 557 35,000  Level FlightAware ADS-B
Sun 11:04:16 AM 38.7135 -111.8194 173° South 487 560 35,000  Level FlightAware ADS-B
Sun 11:05:09 AM 38.5906 -111.8002 173° South 488 562 35,000  Level FlightAware ADS-B
Sun 11:05:48 AM 38.5028 -111.7870 173° South 488 562 35,000  Level FlightAware ADS-B
Sun 11:06:21 AM 38.4395 -111.7778 173° South 488 562 35,000  Level FlightAware ADS-B
Sun 11:07:22 AM 38.2911 -111.7561 173° South 489 563 35,000  Level FlightAware ADS-B
Sun 11:08:18 AM 38.2393 -111.7486 173° South 489 563 35,000  Level FlightAware ADS-B (KGUC)
Sun 11:09:24 AM 38.0200 -111.7166 174° South 491 565 35,000  Level FlightAware ADS-B
Sun 11:10:26 AM 37.8810 -111.6965 174° South 493 567 35,000  Level FlightAware ADS-B
Sun 11:11:39 AM 37.7132 -111.6721 174° South 495 570 35,000  Level FlightAware ADS-B
Sun 11:13:38 AM 37.4396 -111.6327 174° South 495 570 35,000  Level FlightAware ADS-B
Sun 11:15:45 AM 37.1512 -111.5915 173° South 496 571 35,000  Level FlightAware ADS-B
Sun 11:16:46 AM 37.0126 -111.5718 174° South 496 571 35,000  Level FlightAware ADS-B
Sun 11:17:48 AM 36.8744 -111.5523 174° South 496 571 35,000  Level FlightAware ADS-B
Sun 11:19:38 AM 36.6428 -111.5196 174° South 496 571 35,000  Level FlightAware ADS-B
Sun 11:20:55 AM 36.4560 -111.4934 174° South 497 572 35,000  Level FlightAware ADS-B
Sun 11:21:56 AM 36.3086 -111.4727 174° South 498 573 35,000  Level FlightAware ADS-B
Sun 11:22:49 AM 36.1827 -111.4552 174° South 501 577 35,000  Level FlightAware ADS-B
Sun 11:23:58 AM 36.0224 -111.4330 174° South 503 579 35,000  Level FlightAware ADS-B
Sun 11:26:58 AM 35.6783 -111.3855 174° South 509 586 35,000  Level FlightAware ADS-B
Sun 11:30:27 AM 35.6076 -111.3758 174° South 509 586 35,000  Level FlightAware ADS-B
Sun 11:34:39 AM 34.5212 -111.2293 174° South 513 590 35,000  Level FlightAware ADS-B
Sun 11:35:25 AM 34.4130 -111.2148 174° South 518 596 35,000  Level FlightAware ADS-B
Sun 11:35:56 AM 34.3380 -111.2049 174° South 519 597 35,000  Level FlightAware ADS-B
Sun 11:36:36 AM 34.2516 -111.1934 174° South 520 598 35,000  Level FlightAware ADS-B
Sun 11:37:08 AM 34.1658 -111.1821 174° South 522 601 35,000  Level FlightAware ADS-B
Sun 11:37:49 AM 34.0652 -111.1687 174° South 515 593 35,000  Level FlightAware ADS-B (MLE / VRMM)
Sun 11:38:36 AM 33.9536 -111.1539 174° South 515 593 35,000  Level FlightAware ADS-B (MLE / VRMM)
Sun 11:39:06 AM 33.8804 -111.1442 174° South 515 593 35,000  Level FlightAware ADS-B (MLE / VRMM)
Sun 11:39:45 AM 33.7874 -111.1320 174° South 515 593 35,000  Level FlightAware ADS-B (MLE / VRMM)
Sun 11:40:16 AM 33.7151 -111.1224 174° South 524 603 35,000  Level FlightAware ADS-B
Sun 11:40:48 AM 33.6362 -111.1122 174° South 526 605 35,000  Level FlightAware ADS-B
Sun 11:41:18 AM 33.5631 -111.1030 174° South 517 595 35,000  Level FlightAware ADS-B (MLE / VRMM)
Sun 11:41:48 AM 33.4892 -111.0935 174° South 516 594 35,000  Level FlightAware ADS-B (MLE / VRMM)
Sun 11:42:18 AM 33.4184 -111.0843 174° South 515 593 35,000  Level FlightAware ADS-B (MLE / VRMM)
Sun 11:42:48 AM 33.3447 -111.0746 174° South 516 594 35,000  Level FlightAware ADS-B (MLE / VRMM)
Sun 11:43:28 AM 33.2487 -111.0660 177° South 518 596 35,000  Level FlightAware ADS-B (MLE / VRMM)
Sun 11:43:58 AM 33.1763 -111.0617 177° South 518 596 35,000  Level FlightAware ADS-B (MLE / VRMM)
Sun 11:44:28 AM 33.1065 -111.0574 177° South 524 603 35,000  Level FlightAware ADS-B
Sun 11:45:01 AM 33.0226 -111.0522 177° South 518 596 35,000  Level FlightAware ADS-B (MLE / VRMM)
Sun 11:45:31 AM 32.9491 -111.0476 177° South 519 597 35,000  Level FlightAware ADS-B (MLE / VRMM)
Sun 11:46:02 AM 32.8745 -111.0429 177° South 528 608 35,000  Level FlightAware ADS-B (MLE / VRMM)
Sun 11:46:32 AM 32.8049 -111.0385 177° South 532 612 35,000  Level FlightAware ADS-B (QNS / SBCO)
Sun 11:47:12 AM 32.7040 -111.0326 177° South 534 615 35,000  Level FlightAware ADS-B (QNS / SBCO)
Sun 11:47:43 AM 32.6248 -111.0279 177° South 528 608 35,000  Level FlightAware ADS-B (MLE / VRMM)
Sun 11:48:16 AM 32.5445 -111.0230 177° South 528 608 35,000  Level FlightAware ADS-B (MLE / VRMM)
Sun 11:48:51 AM 32.4582 -111.0177 177° South 537 618 35,000  Level FlightAware ADS-B (QNS / SBCO)
Sun 11:49:27 AM 32.3671 -111.0122 177° South 540 621 35,000  Level FlightAware ADS-B
Sun 11:49:59 AM 32.2877 -111.0073 177° South 541 623 35,000  Level FlightAware ADS-B
Sun 11:50:31 AM 32.2142 -111.0027 177° South 541 623 35,000  Level FlightAware ADS-B (QNS / SBCO)
Sun 11:51:06 AM 32.1189 -110.9968 177° South 544 626 35,000  Level FlightAware ADS-B (MLE / VRMM)
Sun 11:51:36 AM 32.0428 -110.9922 177° South 545 627 35,000  Level FlightAware ADS-B (MLE / VRMM)
Sun 11:52:07 AM 31.9665 -110.9876 177° South 534 615 35,000  Level FlightAware ADS-B (MLE / VRMM)
Sun 11:52:38 AM 31.8889 -110.9830 177° South 542 624 35,000  Level FlightAware ADS-B
Sun 11:53:11 AM 31.8067 -110.9780 177° South 542 624 35,000  Level FlightAware ADS-B (QNS / SBCO)
Sun 11:53:49 AM 31.7116 -110.9724 177° South 533 613 35,000  Level FlightAware ADS-B (MLE / VRMM)
Sun 11:54:21 AM 31.6311 -110.9677 177° South 533 613 35,000  Level FlightAware ADS-B (MLE / VRMM)
Sun 11:54:52 AM 31.5666 -110.9639 177° South 541 623 35,000  Level FlightAware ADS-B (QNS / SBCO)
Sun 11:55:31 AM 31.4685 -110.9579 177° South 544 626 35,000  Level FlightAware ADS-B (QNS / SBCO)
Sun 11:55:58 AM 31.3875 -110.9525 175° South 551 634 35,000  Level FlightAware ADS-B (MLE / VRMM)
Sun 11:56:32 AM 31.3033 -110.9292 160° South 544 626 35,000  Level FlightAware ADS-B (QNS / SBCO)
Sun 11:57:03 AM 31.2446 -110.8970 153° Southeast 539 620 35,000  Level FlightAware ADS-B
Sun 11:57:38 AM 31.1582 -110.8456 153° Southeast 536 617 35,000  Level FlightAware ADS-B
Sun 11:58:12 AM 31.0813 -110.8000 153° Southeast 537 618 35,000  Level FlightAware ADS-B (QNS / SBCO)
Sun 11:58:47 AM 31.0048 -110.7546 153° Southeast 536 617 35,000  Level FlightAware ADS-B (QNS / SBCO)
Sun 11:59:22 AM 30.9664 -110.7318 153° Southeast 535 616 35,000  Level FlightAware ADS-B (NCL / EGNT)
Sun 12:00:18 PM 30.8082 -110.6383 153° Southeast 530 610 35,000  Level FlightAware ADS-B
Sun 12:01:22 PM 30.6648 -110.5534 153° Southeast 524 603 35,000  Level FlightAware ADS-B
Sun 12:02:12 PM 30.5580 -110.4909 153° Southeast 516 594 35,000  Level FlightAware ADS-B
Sun 12:03:01 PM 30.5580 -110.4909 153° Southeast 513 590 35,000  Level FlightAware ADS-B
Sun 12:05:00 PM 30.3343 -110.3576 153° Southeast  Level FlightAware Approximate
Sun 12:06:00 PM 30.2215 -110.2906 153° Southeast  Level FlightAware Approximate
Sun 12:07:00 PM 30.1086 -110.2238 153° Southeast  Level FlightAware Approximate
Sun 12:08:00 PM 29.9957 -110.1572 153° Southeast  Level FlightAware Approximate
Sun 12:09:00 PM 29.8828 -110.0906 153° Southeast  Level FlightAware Approximate
Sun 12:10:00 PM 29.7698 -110.0243 153° Southeast  Level FlightAware Approximate
Sun 12:11:00 PM 29.6567 -109.9585 153° Southeast  Level FlightAware Approximate
Sun 12:12:00 PM 29.5432 -109.8934 153° Southeast  Level FlightAware Approximate
Sun 12:13:00 PM 29.4297 -109.8285 154° Southeast  Level FlightAware Approximate
Sun 12:14:00 PM 29.3162 -109.7637 154° Southeast  Level FlightAware Approximate
Sun 12:15:00 PM 29.2027 -109.6991 154° Southeast  Level FlightAware Approximate
Sun 12:16:00 PM 29.0891 -109.6346 154° Southeast  Level FlightAware Approximate
Sun 12:17:00 PM 28.9755 -109.5702 154° Southeast  Level FlightAware Approximate
Sun 12:18:00 PM 28.8618 -109.5060 154° Southeast  Level FlightAware Approximate
Sun 12:19:00 PM 28.7481 -109.4419 154° Southeast  Level FlightAware Approximate
Sun 12:20:00 PM 28.6344 -109.3780 154° Southeast  Level FlightAware Approximate
Sun 12:21:00 PM 28.5207 -109.3142 154° Southeast  Level FlightAware Approximate
Sun 12:22:00 PM 28.4069 -109.2506 154° Southeast  Level FlightAware Approximate
Sun 12:23:00 PM 28.2931 -109.1870 154° Southeast  Level FlightAware Approximate
Sun 12:24:00 PM 28.1793 -109.1237 154° Southeast  Level FlightAware Approximate
Sun 12:25:00 PM 28.0645 -109.0625 155° Southeast  Level FlightAware Approximate
Sun 12:26:00 PM 27.9497 -109.0017 155° Southeast  Level FlightAware Approximate
Sun 12:27:00 PM 27.8353 -108.9399 154° Southeast  Level FlightAware Approximate
Sun 12:28:00 PM 27.7214 -108.8768 154° Southeast  Level FlightAware Approximate
Sun 12:29:00 PM 27.6076 -108.8138 154° Southeast  Level FlightAware Approximate
Sun 12:30:00 PM 27.4937 -108.7509 154° Southeast  Level FlightAware Approximate
Sun 12:31:00 PM 27.3798 -108.6882 154° Southeast  Level FlightAware Approximate
Sun 12:32:00 PM 27.2659 -108.6256 154° Southeast  Level FlightAware Approximate
Sun 12:33:00 PM 27.1519 -108.5631 154° Southeast  Level FlightAware Approximate
Sun 12:34:00 PM 27.0379 -108.5007 154° Southeast  Level FlightAware Approximate
Sun 12:35:00 PM 26.9239 -108.4385 154° Southeast  Level FlightAware Approximate
Sun 12:36:00 PM 26.8099 -108.3764 154° Southeast  Level FlightAware Approximate
Sun 12:37:00 PM 26.6957 -108.3148 159° South  Level FlightAware Approximate
Sun 12:38:00 PM 26.5773 -108.2639 159° South  Level FlightAware Approximate
Sun 12:39:00 PM 26.4590 -108.2131 159° South  Level FlightAware Approximate
Sun 12:40:00 PM 26.3406 -108.1625 159° South  Level FlightAware Approximate
Sun 12:41:00 PM 26.2223 -108.1116 158° South  Level FlightAware Approximate
Sun 12:42:00 PM 26.1050 -108.0580 158° South  Level FlightAware Approximate
Sun 12:43:00 PM 25.9876 -108.0045 158° South  Level FlightAware Approximate
Sun 12:44:00 PM 25.8703 -107.9511 158° South  Level FlightAware Approximate
Sun 12:45:00 PM 25.7530 -107.8978 158° South  Level FlightAware Approximate
Sun 12:46:00 PM 25.6356 -107.8446 158° South  Level FlightAware Approximate
Sun 12:47:00 PM 25.5182 -107.7915 158° South  Level FlightAware Approximate
Sun 12:48:00 PM 25.3999 -107.7408 159° South  Level FlightAware Approximate
Sun 12:49:00 PM 25.2815 -107.6907 159° South  Level FlightAware Approximate
Sun 12:50:00 PM 25.1631 -107.6406 159° South  Level FlightAware Approximate
Sun 12:51:00 PM 25.0447 -107.5906 159° South  Level FlightAware Approximate
Sun 12:52:00 PM 24.9263 -107.5407 159° South  Level FlightAware Approximate
Sun 12:53:00 PM 24.8078 -107.4909 159° South  Level FlightAware Approximate
Sun 12:54:00 PM 24.6966 -107.4260 145° Southeast  Level FlightAware Approximate
Sun 12:55:00 PM 24.5923 -107.3467 145° Southeast  Level FlightAware Approximate
Sun 12:56:00 PM 24.4879 -107.2675 145° Southeast  Level FlightAware Approximate
Sun 12:57:00 PM 24.3835 -107.1885 145° Southeast  Level FlightAware Approximate
Sun 12:58:00 PM 24.2791 -107.1096 145° Southeast  Level FlightAware Approximate
Sun 12:59:00 PM 24.1746 -107.0309 145° Southeast  Level FlightAware Approximate
Sun 01:00:00 PM 24.0701 -106.9522 146° Southeast  Level FlightAware Approximate
Sun 01:01:00 PM 23.9655 -106.8737 146° Southeast  Level FlightAware Approximate
Sun 01:02:00 PM 23.8609 -106.7953 146° Southeast  Level FlightAware Approximate
Sun 01:03:00 PM 23.7563 -106.7171 146° Southeast  Level FlightAware Approximate
Sun 01:04:00 PM 23.6516 -106.6389 146° Southeast  Level FlightAware Approximate
Sun 01:05:00 PM 23.5469 -106.5610 146° Southeast  Level FlightAware Approximate
Sun 01:06:00 PM 23.4422 -106.4831 146° Southeast  Level FlightAware Approximate
Sun 01:07:00 PM 23.3374 -106.4053 146° Southeast  Level FlightAware Approximate
Sun 01:08:00 PM 23.2325 -106.3277 146° Southeast  Level FlightAware Approximate
Sun 01:09:00 PM 23.1252 -106.2552 157° South  Level FlightAware Approximate
Sun 01:10:00 PM 23.0084 -106.2013 157° South  Level FlightAware Approximate
Sun 01:11:00 PM 22.8909 -106.1497 160° South  Level FlightAware Approximate
Sun 01:12:00 PM 22.7720 -106.1021 160° South  Level FlightAware Approximate
Sun 01:13:00 PM 22.6530 -106.0545 160° South  Level FlightAware Approximate
Sun 01:14:00 PM 22.5341 -106.0070 160° South  Level FlightAware Approximate
Sun 01:15:00 PM 22.4172 -105.9543 161° South  Level FlightAware Approximate
Sun 01:16:00 PM 22.2978 -105.9083 158° South  Level FlightAware Approximate
Sun 01:17:00 PM 22.1805 -105.8561 158° South  Level FlightAware Approximate
Sun 01:18:00 PM 22.0631 -105.8046 158° South  Level FlightAware Approximate
Sun 01:19:00 PM 21.9456 -105.7532 158° South  Level FlightAware Approximate
Sun 01:20:00 PM 21.8268 -105.7055 161° South  Level FlightAware Approximate
Sun 01:21:00 PM 21.7073 -105.6601 161° South  Level FlightAware Approximate
Sun 01:22:00 PM 21.5877 -105.6147 161° South  Level FlightAware Approximate
Sun 01:23:00 PM 21.4681 -105.5694 161° South  Level FlightAware Approximate
Sun 01:24:00 PM 21.3499 -105.5203 157° South  Level FlightAware Approximate
Sun 01:25:00 PM 21.2325 -105.4691 159° South  Level FlightAware Approximate
Sun 01:26:00 PM 21.1143 -105.4198 159° South  Level FlightAware Approximate
Sun 01:27:00 PM 20.9967 -105.3689 157° South  Level FlightAware Approximate
Sun 01:28:00 PM 20.8776 -105.3236 167° South  Level FlightAware Approximate
Sun 01:29:00 PM 20.7625 -105.2717 159° South  Level FlightAware Approximate
Sun 01:30:00 PM 20.6801 -105.2542 169° South  Level Estimated
Sun 01:31:00 PM 20.6801 -105.2542 169° South  Level Estimated
Sun 01:32:00 PM 20.6801 -105.2542 169° South  Level Estimated
Sun 01:33:00 PM 20.6801 -105.2542 169° South  Level Estimated
Sun 01:34:00 PM 20.6801 -105.2542 169° South  Level Estimated
Sun 01:35:00 PM 20.6801 -105.2542 169° South  Level Estimated

Login

Don't have an account? Register now (free) for customized features, flight alerts, and more!